Time;durP1;ratioP1;P1;durP2;ratioP2;P2;SDS_P1;SDS_P2;PMS_P1;PMS_P2;Temp;Humidity;BMP_temperature;BMP_pressure;BME280_temperature;BME280_humidity;BME280_pressure;Samples;Min_cycle;Max_cycle;Signal;HPM_P1;HPM_P2
2023/09/12 00:02:13;;;;;;;31.65;23.58;;;;;;;18.95;100.00;101359.91;6249410;22;20027;-78
2023/09/12 00:04:40;;;;;;;34.53;23.90;;;;;;;18.92;100.00;101363.56;6197339;22;20405;-78
2023/09/12 00:07:06;;;;;;;30.92;24.02;;;;;;;18.90;100.00;101355.22;6222435;22;20421;-78
2023/09/12 00:09:33;;;;;;;32.42;23.00;;;;;;;18.90;100.00;101359.88;6221659;22;20509;-78
2023/09/12 00:11:59;;;;;;;34.35;24.17;;;;;;;18.85;100.00;101353.22;6249694;22;20096;-78
2023/09/12 00:14:26;;;;;;;38.50;23.52;;;;;;;18.82;100.00;101342.66;6248914;22;20442;-79
2023/09/12 00:16:55;;;;;;;33.70;22.80;;;;;;;18.78;100.00;101342.91;6249733;22;20477;-78
2023/09/12 00:19:22;;;;;;;30.48;22.83;;;;;;;18.78;100.00;101326.72;6249017;22;20028;-78
2023/09/12 00:21:48;;;;;;;32.38;23.52;;;;;;;18.76;100.00;101339.19;6249675;22;20048;-78
2023/09/12 00:24:15;;;;;;;34.38;23.63;;;;;;;18.75;100.00;101343.13;6248733;22;20504;-78
2023/09/12 00:26:41;;;;;;;32.97;24.38;;;;;;;18.69;100.00;101331.56;6249162;22;20021;-78
2023/09/12 00:29:08;;;;;;;35.05;24.08;;;;;;;18.67;100.00;101325.91;6249270;22;20060;-78
2023/09/12 00:31:35;;;;;;;34.47;22.77;;;;;;;18.63;100.00;101328.81;6249338;22;20017;-79
2023/09/12 00:34:02;;;;;;;27.35;21.98;;;;;;;18.56;100.00;101332.66;6249718;22;20433;-79
2023/09/12 00:36:28;;;;;;;28.48;22.20;;;;;;;18.53;100.00;101324.81;6222098;22;20153;-79
2023/09/12 00:38:56;;;;;;;28.52;22.02;;;;;;;18.52;100.00;101328.72;6248877;22;20747;-78
2023/09/12 00:41:23;;;;;;;29.20;21.75;;;;;;;18.50;100.00;101326.50;6221376;22;20103;-79
2023/09/12 00:43:50;;;;;;;30.60;20.98;;;;;;;18.49;100.00;101335.81;6249401;22;20462;-78
2023/09/12 00:46:19;;;;;;;30.52;22.52;;;;;;;18.45;100.00;101339.94;6222277;22;20043;-78
2023/09/12 00:48:47;;;;;;;32.28;21.42;;;;;;;18.42;100.00;101344.31;6221975;22;20067;-78
2023/09/12 00:51:16;;;;;;;29.95;21.20;;;;;;;18.40;100.00;101349.44;6221539;22;20021;-79
2023/09/12 00:53:43;;;;;;;28.85;21.75;;;;;;;18.33;100.00;101350.66;6220981;22;20013;-79
2023/09/12 00:56:10;;;;;;;28.25;21.35;;;;;;;18.31;100.00;101345.00;6221770;22;20028;-78
2023/09/12 00:58:38;;;;;;;28.48;20.58;;;;;;;18.29;100.00;101342.03;6248816;22;20016;-79
2023/09/12 01:01:05;;;;;;;27.17;20.40;;;;;;;18.28;100.00;101347.91;6222311;22;20409;-79
2023/09/12 01:03:32;;;;;;;27.95;20.90;;;;;;;18.26;100.00;101343.00;6250045;22;20020;-78
2023/09/12 01:05:59;;;;;;;28.23;20.65;;;;;;;18.27;100.00;101346.44;6250633;22;20091;-78
2023/09/12 01:08:27;;;;;;;25.02;19.95;;;;;;;18.25;100.00;101351.56;6222093;22;20023;-78
2023/09/12 01:10:55;;;;;;;24.65;19.55;;;;;;;18.23;100.00;101345.91;6223309;22;20027;-78
2023/09/12 01:13:23;;;;;;;25.27;19.20;;;;;;;18.20;100.00;101336.81;6249933;22;20013;-79
2023/09/12 01:15:49;;;;;;;23.13;18.80;;;;;;;18.17;100.00;101337.03;6250914;22;20040;-77
2023/09/12 01:18:16;;;;;;;21.70;19.40;;;;;;;18.13;100.00;101339.94;6250371;22;20017;-78
2023/09/12 01:21:18;;;;;;;22.60;18.80;;;;;;;18.12;100.00;101345.81;6250453;22;20020;-78
2023/09/12 01:24:08;;;;;;;21.75;18.10;;;;;;;18.09;100.00;101335.97;6214456;22;20024;-79
2023/09/12 01:26:43;;;;;;;22.73;18.88;;;;;;;18.04;100.00;101347.44;6207540;22;20020;-78
2023/09/12 01:29:12;;;;;;;24.00;18.88;;;;;;;18.00;100.00;101347.66;6222799;22;20017;-78
2023/09/12 01:31:39;;;;;;;19.73;17.73;;;;;;;17.98;100.00;101347.41;6250261;22;20048;-79
2023/09/12 01:34:10;;;;;;;20.75;17.70;;;;;;;17.96;100.00;101347.91;6222915;22;20021;-79
2023/09/12 01:36:38;;;;;;;21.50;18.63;;;;;;;17.94;100.00;101342.25;6222767;22;20048;-78
2023/09/12 01:39:04;;;;;;;20.13;17.52;;;;;;;17.91;100.00;101340.50;6250579;22;20446;-78
2023/09/12 01:41:34;;;;;;;23.42;18.52;;;;;;;17.88;100.00;101338.00;6249432;22;20454;-78
2023/09/12 01:44:02;;;;;;;22.48;17.95;;;;;;;17.86;100.00;101345.81;6223138;22;20056;-78
2023/09/12 01:46:31;;;;;;;25.08;18.70;;;;;;;17.82;100.00;101337.22;6222603;22;20024;-79
2023/09/12 01:49:00;;;;;;;26.55;17.98;;;;;;;17.78;100.00;101331.28;6250623;22;20834;-79
2023/09/12 01:51:28;;;;;;;24.55;19.23;;;;;;;17.78;100.00;101334.00;6249261;22;20029;-79
2023/09/12 01:53:55;;;;;;;23.80;19.00;;;;;;;17.75;100.00;101340.31;6250511;22;20096;-78
2023/09/12 01:56:23;;;;;;;22.38;17.42;;;;;;;17.70;100.00;101335.63;6249724;22;20013;-79
2023/09/12 01:58:50;;;;;;;39.13;17.88;;;;;;;17.65;100.00;101328.97;6198137;22;20430;-79
2023/09/12 02:01:17;;;;;;;29.15;17.05;;;;;;;17.61;100.00;101334.53;6223089;22;20057;-78
2023/09/12 02:03:43;;;;;;;18.73;16.10;;;;;;;17.62;100.00;101333.31;6250390;22;20019;-79
2023/09/12 02:06:10;;;;;;;24.27;17.70;;;;;;;17.61;100.00;101328.41;6222251;22;20024;-78
2023/09/12 02:08:37;;;;;;;27.60;19.02;;;;;;;17.60;100.00;101324.97;6250062;22;20494;-78
2023/09/12 02:11:03;;;;;;;93.18;18.77;;;;;;;17.56;100.00;101321.75;6223170;22;20024;-79
2023/09/12 02:13:30;;;;;;;21.67;18.73;;;;;;;17.57;100.00;101325.94;6249258;22;20012;-79
2023/09/12 02:16:02;;;;;;;61.97;19.35;;;;;;;17.56;100.00;101324.47;6198444;22;20401;-78
2023/09/12 02:18:29;;;;;;;36.53;18.92;;;;;;;17.54;100.00;101324.19;6197586;22;20016;-78
2023/09/12 02:20:57;;;;;;;37.58;19.20;;;;;;;17.55;100.00;101324.94;6249864;22;20075;-78
2023/09/12 02:23:24;;;;;;;56.17;20.15;;;;;;;17.53;100.00;101316.59;6249644;22;20016;-78
2023/09/12 02:25:50;;;;;;;27.50;18.83;;;;;;;17.51;100.00;101319.75;6197999;22;20027;-78
2023/09/12 02:28:17;;;;;;;64.65;19.77;;;;;;;17.48;100.00;101320.69;6222750;22;20486;-78
2023/09/12 02:30:43;;;;;;;33.75;20.40;;;;;;;17.48;100.00;101325.34;6198400;22;20099;-78
2023/09/12 02:33:10;;;;;;;65.93;19.50;;;;;;;17.47;100.00;101321.16;6222911;22;20027;-78
2023/09/12 02:35:37;;;;;;;51.10;18.73;;;;;;;17.43;100.00;101320.63;6222437;22;20424;-78
2023/09/12 02:38:04;;;;;;;31.45;19.35;;;;;;;17.41;100.00;101325.75;6223259;22;20047;-78
2023/09/12 02:40:31;;;;;;;31.10;20.05;;;;;;;17.39;100.00;101328.91;6222480;22;20028;-78
2023/09/12 02:42:58;;;;;;;27.40;17.95;;;;;;;17.37;100.00;101336.72;6223141;22;20083;-79
2023/09/12 02:45:24;;;;;;;32.53;19.27;;;;;;;17.34;100.00;101332.28;6222361;22;20047;-79
2023/09/12 02:47:51;;;;;;;24.90;18.40;;;;;;;17.32;100.00;101324.66;6223267;22;20024;-79
2023/09/12 02:50:17;;;;;;;20.58;18.33;;;;;;;17.32;100.00;101324.66;6222206;22;20155;-79
2023/09/12 02:52:44;;;;;;;50.92;18.02;;;;;;;17.31;100.00;101327.81;6223232;22;20027;-79
2023/09/12 02:55:11;;;;;;;26.30;17.77;;;;;;;17.28;100.00;101331.47;6249831;22;20075;-79
2023/09/12 02:57:37;;;;;;;26.20;18.50;;;;;;;17.26;100.00;101331.94;6222709;22;20480;-79
2023/09/12 03:00:07;;;;;;;21.80;18.00;;;;;;;17.21;100.00;101335.28;6223018;22;20411;-79
2023/09/12 03:02:33;;;;;;;22.98;18.35;;;;;;;17.18;100.00;101320.13;6250720;22;20020;-79
2023/09/12 03:05:04;;;;;;;20.15;18.05;;;;;;;17.16;100.00;101327.91;6223257;22;20027;-79
2023/09/12 03:07:31;;;;;;;18.95;17.08;;;;;;;17.16;100.00;101335.25;6222860;22;20088;-79
2023/09/12 03:09:58;;;;;;;22.08;17.15;;;;;;;17.08;100.00;101339.53;6223212;22;20382;-79
2023/09/12 03:12:24;;;;;;;24.50;18.45;;;;;;;17.03;100.00;101340.22;6222412;22;20458;-79
2023/09/12 03:14:51;;;;;;;19.92;17.45;;;;;;;17.03;100.00;101342.91;6251418;22;20020;-80
2023/09/12 03:17:18;;;;;;;19.75;17.13;;;;;;;17.02;100.00;101333.34;6223533;22;20438;-79
2023/09/12 03:19:44;;;;;;;22.88;17.50;;;;;;;16.98;100.00;101331.59;6223189;22;20024;-79
2023/09/12 03:22:12;;;;;;;20.08;16.98;;;;;;;16.98;100.00;101344.28;6250324;22;20057;-79
2023/09/12 03:24:39;;;;;;;18.80;16.85;;;;;;;16.96;100.00;101341.34;6223422;22;20023;-78
2023/09/12 03:27:05;;;;;;;18.58;16.58;;;;;;;16.94;100.00;101344.50;6249706;22;20510;-78
2023/09/12 03:29:32;;;;;;;19.23;16.63;;;;;;;16.90;100.00;101335.88;6223216;22;20087;-79
2023/09/12 03:31:59;;;;;;;18.08;15.60;;;;;;;16.87;100.00;101334.13;6223011;22;20020;-79
2023/09/12 03:34:25;;;;;;;19.45;16.27;;;;;;;16.86;100.00;101331.91;6197637;22;20048;-79
2023/09/12 03:36:52;;;;;;;18.63;16.67;;;;;;;16.84;100.00;101324.31;6198393;22;20421;-79
2023/09/12 03:39:18;;;;;;;18.50;16.48;;;;;;;16.84;100.00;101323.56;6250026;22;20363;-79
2023/09/12 03:41:45;;;;;;;16.85;15.05;;;;;;;16.79;100.00;101324.25;6189087;23;20107;-79
2023/09/12 03:44:12;;;;;;;17.02;15.32;;;;;;;16.75;100.00;101332.50;6187360;23;20037;-78
2023/09/12 03:46:39;;;;;;;17.65;15.85;;;;;;;16.74;100.00;101325.66;6188507;23;20025;-78
2023/09/12 03:49:06;;;;;;;17.88;16.00;;;;;;;16.73;100.00;101323.44;6187571;23;20021;-77
2023/09/12 03:51:34;;;;;;;16.92;15.23;;;;;;;16.72;100.00;101321.94;6162749;23;20021;-78
2023/09/12 03:54:02;;;;;;;16.35;14.65;;;;;;;16.71;100.00;101318.53;6162925;23;20018;-77
2023/09/12 03:56:29;;;;;;;17.83;16.00;;;;;;;16.70;100.00;101310.94;6186788;23;20059;-78
2023/09/12 03:58:57;;;;;;;18.80;16.05;;;;;;;16.70;100.00;101319.72;6187754;23;20088;-78
2023/09/12 04:01:24;;;;;;;16.20;14.63;;;;;;;16.71;100.00;101318.53;6186207;23;20902;-77
2023/09/12 04:03:51;;;;;;;16.00;14.40;;;;;;;16.71;100.00;101317.78;6162774;23;20025;-77
2023/09/12 04:06:18;;;;;;;16.98;15.10;;;;;;;16.72;100.00;101325.38;6187124;23;20088;-77
2023/09/12 04:08:44;;;;;;;16.65;14.77;;;;;;;16.75;100.00;101316.38;6187513;23;20081;-77
2023/09/12 04:11:11;;;;;;;15.77;14.25;;;;;;;16.77;100.00;101324.72;6187169;23;20022;-77
2023/09/12 04:13:38;;;;;;;20.38;16.85;;;;;;;16.77;100.00;101323.97;6187089;23;20034;-77
2023/09/12 04:16:04;;;;;;;17.50;15.68;;;;;;;16.78;100.00;101323.50;6186896;23;20013;-78
2023/09/12 04:18:33;;;;;;;19.48;15.57;;;;;;;16.79;100.00;101319.63;6186806;23;20097;-78
2023/09/12 04:21:00;;;;;;;25.20;18.00;;;;;;;16.82;100.00;101323.28;6187547;23;20024;-78
2023/09/12 04:23:26;;;;;;;26.00;19.10;;;;;;;16.81;100.00;101311.06;6186736;23;20049;-78
2023/09/12 04:25:53;;;;;;;32.60;19.52;;;;;;;16.82;100.00;101310.59;6187578;23;20028;-78
2023/09/12 04:28:20;;;;;;;31.13;20.50;;;;;;;16.79;100.00;101306.19;6188167;23;20459;-78
2023/09/12 04:30:46;;;;;;;24.77;20.10;;;;;;;16.75;100.00;101302.94;6186643;23;20026;-78
2023/09/12 04:33:14;;;;;;;24.15;19.05;;;;;;;16.75;100.00;101294.13;6186875;23;20022;-77
2023/09/12 04:35:41;;;;;;;22.02;17.63;;;;;;;16.73;100.00;101299.97;6186731;23;20061;-77
2023/09/12 04:38:08;;;;;;;26.17;18.70;;;;;;;16.73;100.00;101301.94;6187750;23;20460;-77
2023/09/12 04:40:34;;;;;;;26.98;17.92;;;;;;;16.71;100.00;101305.06;6217787;22;20140;-77
2023/09/12 04:43:01;;;;;;;24.15;16.73;;;;;;;16.65;100.00;101305.00;6223951;22;20021;-78
2023/09/12 04:45:28;;;;;;;21.52;16.17;;;;;;;16.61;100.00;101303.69;6222218;22;20083;-77
2023/09/12 04:47:55;;;;;;;23.90;16.92;;;;;;;16.57;100.00;101298.50;6250911;22;20020;-77
2023/09/12 04:50:21;;;;;;;23.95;16.98;;;;;;;16.58;100.00;101299.25;6222976;22;20017;-78
2023/09/12 04:52:48;;;;;;;26.25;16.83;;;;;;;16.56;100.00;101294.34;6223858;22;20071;-78
2023/09/12 04:55:14;;;;;;;23.05;16.70;;;;;;;16.54;100.00;101306.75;6223364;22;20023;-78
2023/09/12 04:57:41;;;;;;;29.45;18.55;;;;;;;16.51;100.00;101305.00;6250550;22;20473;-78
2023/09/12 05:00:10;;;;;;;33.25;19.85;;;;;;;16.50;100.00;101301.56;6197816;22;20112;-78
2023/09/12 05:02:38;;;;;;;61.92;20.70;;;;;;;16.46;100.00;101289.53;6223373;22;20012;-78
2023/09/12 05:05:05;;;;;;;48.65;18.92;;;;;;;16.41;100.00;101288.22;6223664;22;20028;-78
2023/09/12 05:07:32;;;;;;;71.80;19.63;;;;;;;16.41;100.00;101293.59;6223127;22;20024;-78
2023/09/12 05:09:58;;;;;;;30.65;19.25;;;;;;;16.40;100.00;101294.06;6223370;22;20405;-78
2023/09/12 05:12:25;;;;;;;26.52;17.85;;;;;;;16.37;100.00;101300.41;6250160;22;20059;-78
2023/09/12 05:14:52;;;;;;;27.88;17.52;;;;;;;16.34;100.00;101297.44;6250135;22;20027;-79
2023/09/12 05:17:18;;;;;;;27.40;16.42;;;;;;;16.30;100.00;101307.63;6250045;22;20099;-78
2023/09/12 05:19:45;;;;;;;18.30;16.38;;;;;;;16.28;100.00;101312.00;6250508;22;20017;-78
2023/09/12 05:22:12;;;;;;;19.17;16.10;;;;;;;16.27;100.00;101311.25;6250330;22;20017;-78
2023/09/12 05:24:38;;;;;;;17.73;15.13;;;;;;;16.26;100.00;101309.03;6198257;22;20148;-78
2023/09/12 05:27:05;;;;;;;16.83;15.02;;;;;;;16.25;100.00;101307.53;6250627;22;20024;-78
2023/09/12 05:29:32;;;;;;;17.25;15.45;;;;;;;16.27;100.00;101310.50;6222600;22;20021;-79
2023/09/12 05:31:59;;;;;;;16.30;14.60;;;;;;;16.28;100.00;101312.72;6198768;22;20040;-74
2023/09/12 05:34:26;;;;;;;21.60;15.85;;;;;;;16.28;100.00;101317.38;6222489;22;20915;-75
2023/09/12 05:36:52;;;;;;;20.05;16.90;;;;;;;16.29;100.00;101316.16;6223501;22;20043;-75
2023/09/12 05:39:19;;;;;;;22.33;17.77;;;;;;;16.29;100.00;101311.53;6249981;22;20533;-75
2023/09/12 05:41:45;;;;;;;22.23;16.20;;;;;;;16.29;100.00;101308.84;6223271;22;20469;-76
2023/09/12 05:44:17;;;;;;;26.08;16.95;;;;;;;16.30;100.00;101318.38;6222426;22;20033;-75
2023/09/12 05:46:47;;;;;;;;;;;;;;;16.35;100.00;101317.00;6224042;22;20422;-75
2023/09/12 05:49:14;;;;;;;20.77;16.75;;;;;;;16.34;100.00;101316.25;6197810;22;19920;-75
2023/09/12 05:51:42;;;;;;;22.45;16.40;;;;;;;16.39;100.00;101316.81;6223008;22;20076;-74
2023/09/12 05:54:10;;;;;;;26.23;16.95;;;;;;;16.41;100.00;101315.09;6250125;22;20526;-75
2023/09/12 05:56:37;;;;;;;23.63;17.90;;;;;;;16.43;100.00;101311.94;6222723;22;20031;-75
2023/09/12 05:59:03;;;;;;;22.60;16.80;;;;;;;16.48;100.00;101305.94;6222633;22;20340;-74
2023/09/12 06:01:35;;;;;;;28.88;18.75;;;;;;;16.49;100.00;101310.09;6223183;22;20044;-74
2023/09/12 06:04:02;;;;;;;25.67;19.08;;;;;;;16.50;100.00;101316.94;6223230;22;20451;-74
2023/09/12 06:06:29;;;;;;;26.35;17.75;;;;;;;16.53;100.00;101321.41;6222371;22;20020;-75
2023/09/12 06:08:57;;;;;;;21.75;16.75;;;;;;;16.58;100.00;101326.84;6250056;22;20020;-75
2023/09/12 06:11:24;;;;;;;23.27;16.85;;;;;;;16.62;100.00;101329.34;6222224;22;20023;-75
2023/09/12 06:13:51;;;;;;;24.27;17.75;;;;;;;16.65;100.00;101331.88;6250143;22;20023;-73
2023/09/12 06:16:17;;;;;;;26.25;18.48;;;;;;;16.69;100.00;101339.75;6249924;22;20052;-75
2023/09/12 06:18:44;;;;;;;28.08;19.02;;;;;;;16.73;100.00;101339.56;6223761;22;20020;-73
2023/09/12 06:21:11;;;;;;;26.08;18.60;;;;;;;16.75;100.00;101345.94;6223304;22;20387;-73
2023/09/12 06:23:37;;;;;;;26.15;19.80;;;;;;;16.79;100.00;101346.50;6249880;22;20051;-74
2023/09/12 06:26:04;;;;;;;34.05;22.80;;;;;;;16.82;100.00;101353.59;6249712;22;20021;-74
2023/09/12 06:28:31;;;;;;;29.92;22.27;;;;;;;16.83;100.00;101349.72;6249616;22;20025;-74
2023/09/12 06:30:58;;;;;;;38.80;22.80;;;;;;;16.84;100.00;101348.50;6250376;22;20013;-74
2023/09/12 06:33:26;;;;;;;35.20;24.15;;;;;;;16.86;100.00;101351.47;6222720;22;20023;-74
2023/09/12 06:35:53;;;;;;;35.90;24.38;;;;;;;16.90;100.00;101352.00;6250193;22;20023;-75
2023/09/12 06:38:21;;;;;;;40.72;24.92;;;;;;;16.96;100.00;101349.41;6249524;22;20013;-75
2023/09/12 06:40:48;;;;;;;39.53;25.48;;;;;;;17.01;100.00;101346.06;6249198;22;20016;-75
2023/09/12 06:43:14;;;;;;;44.75;26.10;;;;;;;17.07;100.00;101352.25;6249790;22;20477;-74
2023/09/12 06:45:41;;;;;;;40.72;26.55;;;;;;;17.14;100.00;101351.13;6249925;22;20017;-74
2023/09/12 06:48:08;;;;;;;40.10;25.08;;;;;;;17.19;100.00;101353.88;6249709;22;20020;-74
2023/09/12 06:50:37;;;;;;;44.10;26.90;;;;;;;17.22;100.00;101352.91;6249736;22;20016;-74
2023/09/12 06:53:06;;;;;;;42.33;26.92;;;;;;;17.28;100.00;101352.97;6250024;22;20023;-74
2023/09/12 06:55:33;;;;;;;44.38;26.48;;;;;;;17.32;100.00;101351.56;6249273;22;20052;-74
2023/09/12 06:58:00;;;;;;;40.42;25.27;;;;;;;17.41;100.00;101348.00;6250173;22;20023;-74
2023/09/12 07:00:26;;;;;;;39.75;26.25;;;;;;;17.50;100.00;101347.13;6249237;22;20114;-78
2023/09/12 07:02:53;;;;;;;47.33;27.60;;;;;;;17.55;100.00;101351.84;6250212;22;20358;-75
2023/09/12 07:05:20;;;;;;;40.15;24.95;;;;;;;17.55;100.00;101363.34;6249162;22;20017;-75
2023/09/12 07:07:47;;;;;;;36.60;24.40;;;;;;;17.57;100.00;101365.56;6249960;22;20044;-76
2023/09/12 07:10:13;;;;;;;40.17;25.60;;;;;;;17.59;100.00;101366.56;6249173;22;20013;-74
2023/09/12 07:12:52;;;;;;;41.15;25.98;;;;;;;17.60;100.00;101359.97;6249969;22;20020;-74
2023/09/12 07:15:19;;;;;;;40.10;26.40;;;;;;;17.62;100.00;101362.19;6222545;22;20429;-74
2023/09/12 07:17:46;;;;;;;43.45;26.42;;;;;;;17.69;100.00;101361.06;6250181;22;20095;-75
2023/09/12 07:20:15;;;;;;;37.78;26.60;;;;;;;17.75;100.00;101353.78;6249600;22;20033;-75
2023/09/12 07:22:41;;;;;;;45.85;27.08;;;;;;;17.78;100.00;101345.50;6249488;22;20319;-76
2023/09/12 07:25:11;;;;;;;42.30;27.65;;;;;;;17.81;100.00;101349.94;6248739;22;20017;-76
2023/09/12 07:27:38;;;;;;;45.15;26.67;;;;;;;17.84;100.00;101353.63;6249584;22;20530;-78
2023/09/12 07:30:06;;;;;;;41.22;26.17;;;;;;;17.89;100.00;101364.47;6250026;22;20079;-77
2023/09/12 07:32:33;;;;;;;40.90;26.33;;;;;;;17.92;100.00;101360.09;6197405;22;20486;-75
2023/09/12 07:34:59;;;;;;;43.38;27.30;;;;;;;17.94;100.00;101352.28;6249969;22;20289;-76
2023/09/12 07:37:26;;;;;;;43.13;27.10;;;;;;;17.96;100.00;101357.94;6248992;22;20909;-76
2023/09/12 07:39:52;;;;;;;41.97;26.55;;;;;;;17.99;100.00;101357.69;6248550;22;20016;-76
2023/09/12 07:42:23;;;;;;;40.20;25.35;;;;;;;18.06;100.00;101361.91;6249124;22;20019;-76
2023/09/12 07:44:50;;;;;;;45.58;26.63;;;;;;;18.15;100.00;101363.72;6223997;22;20805;-79
2023/09/12 07:47:17;;;;;;;44.95;26.58;;;;;;;18.24;100.00;101372.38;6249653;22;20016;-79
2023/09/12 07:49:44;;;;;;;44.03;27.20;;;;;;;18.38;100.00;101364.66;6223200;22;20029;-81
2023/09/12 07:52:10;;;;;;;42.05;27.73;;;;;;;18.63;100.00;101369.28;6249731;22;20040;-80
2023/09/12 07:54:37;;;;;;;38.95;25.35;;;;;;;18.94;100.00;101361.13;6248746;22;20017;-82
2023/09/12 07:57:04;;;;;;;41.97;26.40;;;;;;;19.19;100.00;101362.22;6252268;22;20335;-85
2023/09/12 07:59:30;;;;;;;36.17;24.25;;;;;;;19.36;100.00;101370.38;6249888;22;20012;-80
2023/09/12 08:01:57;;;;;;;36.78;24.88;;;;;;;19.38;100.00;101375.31;6250329;22;20152;-87
2023/09/12 08:04:24;;;;;;;39.95;25.02;;;;;;;19.52;100.00;101369.75;6249452;22;20100;-80
2023/09/12 08:06:50;;;;;;;38.40;24.75;;;;;;;19.71;100.00;101378.13;6249680;22;20043;-81
2023/09/12 08:09:24;;;;;;;36.90;22.63;;;;;;;19.94;100.00;101385.06;6248399;22;20020;-80
2023/09/12 08:11:50;;;;;;;33.42;22.52;;;;;;;20.17;100.00;101383.13;6248999;22;20096;-80
2023/09/12 08:14:20;;;;;;;32.85;23.10;;;;;;;20.31;100.00;101392.97;6249204;22;20016;-80
2023/09/12 08:16:46;;;;;;;33.00;21.05;;;;;;;20.52;100.00;101390.75;6197701;22;20470;-80
2023/09/12 08:19:13;;;;;;;30.77;20.88;;;;;;;20.64;100.00;101394.19;6249836;22;20017;-83
2023/09/12 08:21:43;;;;;;;34.53;20.67;;;;;;;20.69;100.00;101396.16;6222880;22;20017;-82
2023/09/12 08:24:09;;;;;;;33.88;20.92;;;;;;;20.85;100.00;101394.66;6248393;22;20017;-82
2023/09/12 08:26:36;;;;;;;37.67;21.02;;;;;;;20.98;100.00;101392.91;6249111;22;20083;-80
2023/09/12 08:29:03;;;;;;;31.10;21.95;;;;;;;21.02;100.00;101397.31;6222689;22;20052;-80
2023/09/12 08:31:29;;;;;;;38.47;21.92;;;;;;;21.19;100.00;101390.59;6248760;22;20846;-79
2023/09/12 08:33:56;;;;;;;33.35;21.52;;;;;;;21.25;100.00;101390.63;6222298;22;20397;-77
2023/09/12 08:36:22;;;;;;;38.47;22.20;;;;;;;21.37;100.00;101394.75;6221064;22;20079;-75
2023/09/12 08:38:49;;;;;;;34.92;22.08;;;;;;;21.40;98.32;101390.31;6249232;22;20067;-85
2023/09/12 08:41:15;;;;;;;32.92;21.15;;;;;;;21.54;98.19;101392.72;6248914;22;20016;-86
2023/09/12 08:43:43;;;;;;;31.73;21.05;;;;;;;21.67;98.06;101391.41;6249775;22;20040;-87
2023/09/12 08:46:11;;;;;;;30.05;20.75;;;;;;;21.81;97.44;101390.34;6250123;22;20027;-84
2023/09/12 08:48:39;;;;;;;33.33;20.10;;;;;;;21.81;96.62;101391.09;6225902;22;20213;-88
2023/09/12 08:51:08;;;;;;;33.75;21.25;;;;;;;21.88;96.42;101397.94;6248922;22;20023;-81
2023/09/12 08:53:35;;;;;;;34.05;19.75;;;;;;;21.93;95.41;101383.63;6249022;22;20378;-81
2023/09/12 08:56:03;;;;;;;31.75;20.38;;;;;;;22.16;94.70;101393.09;6249214;22;20013;-81
2023/09/12 08:58:35;;;;;;;35.65;21.10;;;;;;;22.20;93.08;101398.97;6221617;22;20024;-81
2023/09/12 09:01:03;;;;;;;32.95;20.13;;;;;;;22.00;91.90;101391.19;6249376;22;20371;-81
2023/09/12 09:03:30;;;;;;;34.50;21.10;;;;;;;21.91;92.56;101391.53;6248781;22;20020;-81
2023/09/12 09:05:58;;;;;;;29.35;21.13;;;;;;;21.93;93.66;101400.63;6248749;22;20012;-81
2023/09/12 09:08:26;;;;;;;31.92;21.10;;;;;;;22.03;92.86;101392.94;6221801;22;20962;-81
2023/09/12 09:10:57;;;;;;;30.95;20.92;;;;;;;22.08;93.13;101396.84;6221691;22;20020;-81
2023/09/12 09:13:27;;;;;;;29.23;20.20;;;;;;;22.24;91.63;101391.31;6221610;22;20023;-81
2023/09/12 09:16:09;;;;;;;30.90;21.05;;;;;;;22.26;90.00;101399.69;6221115;22;20454;-81
2023/09/12 09:18:59;;;;;;;33.75;21.55;;;;;;;22.34;89.67;101396.41;6248803;22;20084;-80
2023/09/12 09:21:31;;;;;;;33.10;21.23;;;;;;;22.51;89.02;101397.72;6221122;22;20225;-81
2023/09/12 09:24:00;;;;;;;33.13;19.88;;;;;;;22.81;89.36;101402.41;6197390;22;20021;-81
2023/09/12 09:26:50;;;;;;;32.03;20.63;;;;;;;23.21;87.59;101398.75;6223114;22;20013;-81
2023/09/12 09:29:20;;;;;;;30.27;20.92;;;;;;;23.44;85.87;101407.38;6250383;22;20339;-81
2023/09/12 09:31:49;;;;;;;28.08;21.02;;;;;;;23.66;84.96;101408.34;6223583;22;20083;-81
2023/09/12 09:34:18;;;;;;;39.97;22.45;;;;;;;23.86;82.83;101410.53;6250566;22;20443;-81
2023/09/12 09:36:52;;;;;;;35.95;24.65;;;;;;;23.91;82.24;101412.44;6250280;22;20017;-81
2023/09/12 09:39:22;;;;;;;36.72;23.48;;;;;;;24.02;82.06;101406.09;6222993;22;20098;-81
2023/09/12 09:41:50;;;;;;;32.95;23.40;;;;;;;24.06;81.82;101407.25;6223264;22;20451;-81
2023/09/12 09:44:17;;;;;;;38.97;24.13;;;;;;;23.95;79.38;101407.44;6223167;22;20434;-80
2023/09/12 09:46:45;;;;;;;34.67;23.33;;;;;;;23.79;81.20;101411.88;6251030;22;20013;-81
2023/09/12 09:49:17;;;;;;;36.28;24.20;;;;;;;23.78;81.69;101409.66;6249909;22;20430;-82
2023/09/12 09:51:44;;;;;;;37.90;24.20;;;;;;;23.76;80.99;101409.44;6251344;22;20079;-82
2023/09/12 09:54:12;;;;;;;36.88;24.92;;;;;;;23.74;81.09;101407.25;6250216;22;20017;-77
2023/09/12 09:56:57;;;;;;;33.15;22.63;;;;;;;23.85;82.85;101415.25;6249747;22;20104;-76
2023/09/12 09:59:25;;;;;;;40.45;23.92;;;;;;;24.00;81.20;101409.31;6249787;22;20036;-76
2023/09/12 10:01:57;;;;;;;34.85;24.63;;;;;;;23.78;78.60;101404.22;6198018;22;20017;-79
2023/09/12 10:04:27;;;;;;;33.72;23.58;;;;;;;23.99;80.12;101409.88;6249117;22;20475;-76
2023/09/12 10:06:56;;;;;;;31.88;23.65;;;;;;;24.04;78.93;101407.03;6250244;22;20127;-77
2023/09/12 10:09:26;;;;;;;34.67;24.33;;;;;;;24.01;78.67;101418.94;6221971;22;20095;-76
2023/09/12 10:11:55;;;;;;;33.22;22.38;;;;;;;24.38;77.81;101422.88;6250217;22;20429;-78
2023/09/12 10:14:23;;;;;;;33.30;22.45;;;;;;;24.51;77.79;101425.63;6249431;22;20017;-76
2023/09/12 10:16:52;;;;;;;38.70;23.15;;;;;;;24.57;76.45;101420.81;6250197;22;20039;-75
2023/09/12 10:19:26;;;;;;;29.67;21.77;;;;;;;24.75;75.91;101422.00;6248946;22;20017;-75
2023/09/12 10:22:15;;;;;;;31.83;22.23;;;;;;;24.52;74.30;101425.09;6223189;22;20031;-75
2023/09/12 10:24:45;;;;;;;32.45;21.08;;;;;;;24.16;75.97;101423.94;6249904;22;20473;-75
2023/09/12 10:27:12;;;;;;;36.08;21.90;;;;;;;24.12;76.29;101421.50;6249657;22;20233;-75
2023/09/12 10:29:39;;;;;;;29.65;21.08;;;;;;;24.45;76.72;101417.53;6249637;22;20023;-75
2023/09/12 10:32:08;;;;;;;32.20;21.35;;;;;;;24.62;74.91;101411.09;6249798;22;20016;-75
2023/09/12 10:34:37;;;;;;;26.88;20.70;;;;;;;24.86;74.55;101400.00;6249169;22;20063;-75
2023/09/12 10:37:05;;;;;;;29.73;23.05;;;;;;;24.69;72.75;101410.47;6250048;22;20464;-75
2023/09/12 10:39:33;;;;;;;37.47;23.30;;;;;;;24.37;74.60;101403.09;6249134;22;20457;-75
2023/09/12 10:42:04;;;;;;;32.85;22.63;;;;;;;24.34;75.60;101412.31;6250213;22;20023;-74
2023/09/12 10:44:31;;;;;;;28.70;22.50;;;;;;;24.15;75.68;101406.16;6249430;22;20152;-74
2023/09/12 10:46:59;;;;;;;34.30;23.00;;;;;;;24.19;76.14;101412.00;6249391;22;20055;-74
2023/09/12 10:49:25;;;;;;;35.42;21.38;;;;;;;24.38;76.79;101409.28;6249321;22;20027;-75
2023/09/12 10:51:54;;;;;;;27.10;19.67;;;;;;;24.64;75.53;101417.47;6223602;22;20443;-74
2023/09/12 10:54:40;;;;;;;28.35;19.70;;;;;;;24.95;74.23;101418.63;6249102;22;20020;-75
2023/09/12 10:57:13;;;;;;;30.30;17.60;;;;;;;25.02;72.30;101422.75;6249572;22;20087;-75
2023/09/12 10:59:59;;;;;;;29.83;19.90;;;;;;;24.75;71.52;101424.72;6249656;22;20019;-75
2023/09/12 11:02:37;;;;;;;30.33;18.45;;;;;;;24.76;72.14;101418.03;6248405;22;20039;-74
2023/09/12 11:05:23;;;;;;;26.70;20.00;;;;;;;24.90;70.96;101422.94;6250044;22;20450;-75
2023/09/12 11:07:49;;;;;;;28.23;19.73;;;;;;;24.67;72.13;101421.88;6249865;22;20012;-75
2023/09/12 11:10:21;;;;;;;27.05;21.05;;;;;;;24.39;73.22;101421.63;6249330;22;20104;-74